Time;durP1;ratioP1;P1;durP2;ratioP2;P2;SDS_P1;SDS_P2;PMS_P1;PMS_P2;Temp;Humidity;BMP_temperature;BMP_pressure;BME280_temperature;BME280_humidity;BME280_pressure;Samples;Min_cycle;Max_cycle;Signal;HPM_P1;HPM_P2
2021/12/08 00:01:10;;;;;;;2.58;2.03;;;4.10;94.70;;;;;;7386585;19;20120;-59
2021/12/08 00:03:39;;;;;;;2.92;2.05;;;4.00;94.00;;;;;;7400624;19;20135;-59
2021/12/08 00:06:11;;;;;;;2.95;1.60;;;4.10;94.00;;;;;;7391168;19;20253;-59
2021/12/08 00:08:48;;;;;;;3.38;1.70;;;4.20;94.00;;;;;;7400565;19;20345;-59
2021/12/08 00:14:01;;;;;;;1.48;1.38;;;4.30;91.80;;;;;;7396469;19;20355;-59
2021/12/08 00:16:28;;;;;;;5.03;1.85;;;4.30;89.70;;;;;;7366116;19;20111;-59
2021/12/08 00:18:59;;;;;;;2.05;1.67;;;4.40;90.00;;;;;;7396657;19;20112;-59
2021/12/08 00:21:28;;;;;;;2.92;1.90;;;4.40;90.80;;;;;;7406688;19;20128;-59
2021/12/08 00:23:57;;;;;;;2.97;2.30;;;4.50;90.70;;;;;;7403747;19;20124;-60
2021/12/08 00:26:31;;;;;;;3.65;1.98;;;4.60;90.60;;;;;;7401563;19;20112;-61
2021/12/08 00:29:01;;;;;;;2.85;1.42;;;4.60;87.70;;;;;;7391756;19;20124;-60
2021/12/08 00:31:27;;;;;;;2.50;1.58;;;4.60;82.90;;;;;;7387468;19;24057;-59
2021/12/08 00:33:58;;;;;;;3.45;1.60;;;4.60;80.90;;;;;;7396309;19;20217;-60
2021/12/08 00:36:31;;;;;;;2.95;1.42;;;4.50;79.50;;;;;;7389191;19;20474;-60
2021/12/08 00:38:59;;;;;;;1.83;1.52;;;4.40;78.70;;;;;;7396562;19;20123;-59
2021/12/08 00:41:26;;;;;;;2.63;1.70;;;4.40;80.30;;;;;;7399522;19;20147;-60
2021/12/08 00:43:59;;;;;;;2.85;1.75;;;4.30;81.60;;;;;;7399257;19;20139;-60
2021/12/08 00:46:26;;;;;;;1.60;1.50;;;4.20;82.70;;;;;;7393733;19;20128;-60
2021/12/08 00:48:52;;;;;;;2.15;1.60;;;4.20;85.70;;;;;;7401282;19;20154;-60
2021/12/08 00:51:19;;;;;;;3.30;1.65;;;4.10;87.90;;;;;;7399015;19;20135;-60
2021/12/08 00:53:46;;;;;;;2.05;1.63;;;4.00;90.30;;;;;;7404186;19;20130;-60
2021/12/08 00:56:13;;;;;;;3.00;1.45;;;4.00;92.70;;;;;;7400445;19;20124;-60
2021/12/08 00:58:43;;;;;;;1.10;0.98;;;4.00;93.20;;;;;;7396020;19;20124;-59
2021/12/08 01:01:12;;;;;;;2.50;1.60;;;4.20;95.40;;;;;;7395276;19;20203;-60
2021/12/08 01:03:41;;;;;;;3.17;1.30;;;4.30;95.70;;;;;;7398343;19;20141;-60
2021/12/08 01:06:07;;;;;;;1.65;1.27;;;4.40;96.20;;;;;;7380242;19;20238;-60
2021/12/08 01:08:34;;;;;;;1.98;1.73;;;4.40;97.20;;;;;;7380448;19;20224;-59
2021/12/08 01:11:07;;;;;;;2.38;1.75;;;4.50;97.60;;;;;;7397914;19;20239;-60
2021/12/08 01:13:34;;;;;;;1.88;1.55;;;4.50;97.50;;;;;;7396046;19;20205;-60
2021/12/08 01:16:03;;;;;;;1.73;1.50;;;4.50;98.60;;;;;;7397048;19;20123;-59
2021/12/08 01:18:32;;;;;;;6.43;2.13;;;4.50;99.90;;;;;;7394420;19;20138;-61
2021/12/08 01:21:02;;;;;;;4.22;1.50;;;4.40;99.50;;;;;;7406126;19;20312;-60
2021/12/08 01:23:31;;;;;;;3.13;1.55;;;4.40;99.90;;;;;;7401250;19;20315;-60
2021/12/08 01:26:00;;;;;;;1.50;1.40;;;4.50;99.90;;;;;;7403290;19;20135;-59
2021/12/08 01:28:34;;;;;;;2.83;1.52;;;4.50;99.90;;;;;;7397834;19;20124;-60
2021/12/08 01:31:04;;;;;;;1.38;1.23;;;4.50;99.90;;;;;;7392205;19;20152;-60
2021/12/08 01:33:38;;;;;;;1.92;1.65;;;4.60;99.90;;;;;;7401077;19;20127;-59
2021/12/08 01:36:07;;;;;;;4.03;1.77;;;4.60;99.90;;;;;;7399915;19;20123;-59
2021/12/08 01:38:34;;;;;;;1.95;1.48;;;4.50;99.90;;;;;;7400487;19;20178;-59
2021/12/08 01:41:06;;;;;;;3.42;2.25;;;4.50;99.90;;;;;;7397752;19;20291;-59
2021/12/08 01:43:43;;;;;;;2.90;1.75;;;4.50;99.90;;;;;;7392023;19;20119;-59
2021/12/08 01:46:14;;;;;;;3.72;2.10;;;4.50;99.90;;;;;;7400863;19;20249;-60
2021/12/08 01:48:45;;;;;;;2.10;1.90;;;4.50;99.90;;;;;;7400808;19;20128;-59
2021/12/08 01:51:17;;;;;;;2.85;1.95;;;4.50;99.90;;;;;;7394334;19;20183;-61
2021/12/08 01:53:50;;;;;;;3.55;2.63;;;4.50;99.90;;;;;;7402626;19;20132;-61
2021/12/08 01:56:18;;;;;;;2.42;1.60;;;4.40;99.90;;;;;;7398273;19;20132;-61
2021/12/08 01:58:45;;;;;;;4.65;2.10;;;4.40;99.90;;;;;;7399087;19;20120;-61
2021/12/08 02:01:14;;;;;;;2.70;1.80;;;4.40;99.90;;;;;;7397287;19;20120;-61
2021/12/08 02:03:42;;;;;;;3.90;1.95;;;4.50;99.90;;;;;;7396750;19;20140;-61
2021/12/08 02:06:14;;;;;;;2.45;1.60;;;4.50;99.90;;;;;;7395693;19;20143;-61
2021/12/08 02:08:48;;;;;;;4.70;2.00;;;4.40;99.90;;;;;;7397674;19;20116;-61
2021/12/08 02:11:21;;;;;;;3.08;1.90;;;4.40;99.90;;;;;;7398075;19;20146;-61
2021/12/08 02:13:53;;;;;;;2.35;1.70;;;4.40;99.90;;;;;;7398821;19;20226;-61
2021/12/08 02:16:19;;;;;;;2.83;1.98;;;4.40;99.90;;;;;;7395728;19;20132;-61
2021/12/08 02:18:52;;;;;;;3.85;1.90;;;4.40;99.90;;;;;;7402975;19;20229;-61
2021/12/08 02:21:30;;;;;;;3.38;2.10;;;4.40;99.90;;;;;;7402555;19;20116;-61
2021/12/08 02:23:59;;;;;;;5.05;1.55;;;4.40;99.90;;;;;;7403820;19;20119;-61
2021/12/08 02:26:34;;;;;;;1.27;1.17;;;4.40;99.90;;;;;;7402332;19;20123;-60
2021/12/08 02:29:07;;;;;;;2.50;2.00;;;4.10;99.90;;;;;;7401805;19;20124;-60
2021/12/08 02:31:49;;;;;;;3.58;2.60;;;4.20;99.90;;;;;;7392394;19;20343;-61
2021/12/08 02:48:06;;;;;;;5.55;1.80;;;4.30;99.90;;;;;;7403096;19;20135;-61
2021/12/08 02:50:40;;;;;;;1.85;1.58;;;4.40;99.90;;;;;;7400182;19;20180;-61
2021/12/08 02:53:08;;;;;;;2.67;2.17;;;4.40;99.90;;;;;;7408576;19;20116;-61
2021/12/08 02:55:37;;;;;;;3.65;1.80;;;4.40;99.90;;;;;;7394345;19;20115;-61
2021/12/08 02:58:06;;;;;;;3.50;1.83;;;4.50;99.90;;;;;;7405175;19;20825;-61
2021/12/08 03:00:48;;;;;;;2.08;1.50;;;4.50;99.90;;;;;;7401064;19;20122;-61
2021/12/08 03:03:15;;;;;;;3.17;2.50;;;4.50;99.90;;;;;;7407982;19;20143;-61
2021/12/08 03:05:42;;;;;;;6.47;1.95;;;4.40;99.90;;;;;;7405063;19;20235;-61
2021/12/08 03:08:09;;;;;;;2.28;2.00;;;4.40;99.90;;;;;;7403938;19;20700;-61
2021/12/08 03:10:47;;;;;;;2.80;2.15;;;4.30;99.90;;;;;;7405592;19;20315;-61
2021/12/08 03:13:16;;;;;;;1.65;1.40;;;4.20;99.90;;;;;;7398519;19;20133;-61
2021/12/08 03:15:43;;;;;;;2.10;1.40;;;4.10;99.90;;;;;;7403695;19;20132;-61
2021/12/08 03:18:12;;;;;;;1.38;1.27;;;4.30;99.90;;;;;;7406725;19;20123;-61
2021/12/08 03:20:42;;;;;;;1.75;1.50;;;4.40;99.90;;;;;;7401582;19;20128;-61
2021/12/08 03:23:17;;;;;;;2.85;1.60;;;4.50;99.90;;;;;;7408502;19;20132;-61
2021/12/08 03:25:55;;;;;;;3.00;1.90;;;4.50;99.90;;;;;;7400020;19;20127;-61
2021/12/08 03:28:27;;;;;;;1.60;1.50;;;4.50;99.90;;;;;;7405289;19;20156;-61
2021/12/08 03:31:06;;;;;;;1.30;1.20;;;4.40;99.90;;;;;;7398073;19;20147;-61
2021/12/08 03:33:33;;;;;;;1.80;1.30;;;4.40;99.90;;;;;;7405402;19;20243;-61
2021/12/08 03:36:03;;;;;;;1.65;1.50;;;4.20;99.90;;;;;;7406088;19;20135;-61
2021/12/08 03:38:29;;;;;;;2.08;1.77;;;4.40;99.90;;;;;;7400553;19;20167;-61
2021/12/08 03:40:58;;;;;;;1.80;1.48;;;4.20;99.90;;;;;;7409694;19;20205;-61
2021/12/08 03:43:27;;;;;;;1.67;1.58;;;4.20;99.90;;;;;;7397240;19;20145;-61
2021/12/08 03:45:55;;;;;;;2.25;1.55;;;4.20;99.90;;;;;;7406489;19;20139;-61
2021/12/08 03:48:42;;;;;;;3.85;2.25;;;4.40;99.90;;;;;;7403596;19;20147;-61
2021/12/08 03:51:15;;;;;;;2.70;1.77;;;4.50;99.90;;;;;;7403317;19;20124;-59
2021/12/08 03:53:44;;;;;;;2.83;1.85;;;4.50;99.90;;;;;;7405300;19;20139;-58
2021/12/08 03:56:10;;;;;;;6.05;1.80;;;4.60;99.90;;;;;;7402256;19;20124;-59
2021/12/08 03:58:39;;;;;;;2.00;1.50;;;4.70;99.90;;;;;;7398962;19;20219;-60
2021/12/08 04:01:09;;;;;;;4.05;2.00;;;4.70;99.90;;;;;;7397753;19;20131;-59
2021/12/08 04:03:37;;;;;;;3.72;2.10;;;4.70;99.90;;;;;;7382713;19;20120;-60
2021/12/08 04:06:14;;;;;;;1.50;1.40;;;4.80;99.90;;;;;;7404162;19;20128;-60
2021/12/08 04:08:53;;;;;;;3.42;2.40;;;4.80;99.90;;;;;;7403887;19;20134;-60
2021/12/08 04:11:20;;;;;;;2.40;2.20;;;4.80;99.90;;;;;;7399664;19;20126;-59
2021/12/08 04:14:00;;;;;;;2.20;1.95;;;4.70;99.90;;;;;;7401291;19;20127;-60
2021/12/08 04:16:32;;;;;;;2.70;2.40;;;4.80;99.90;;;;;;7404154;19;20119;-60
2021/12/08 04:18:59;;;;;;;2.55;1.92;;;4.90;99.90;;;;;;7397470;19;20179;-59
2021/12/08 04:21:29;;;;;;;3.97;2.67;;;4.90;99.90;;;;;;7404259;19;20327;-60
2021/12/08 04:24:00;;;;;;;2.08;1.92;;;4.90;99.90;;;;;;7398175;19;20136;-60
2021/12/08 04:27:00;;;;;;;3.10;2.00;;;4.80;99.90;;;;;;7399187;19;20130;-59
2021/12/08 04:29:33;;;;;;;3.40;1.92;;;4.70;99.90;;;;;;7400797;19;20312;-60
2021/12/08 04:32:03;;;;;;;2.60;2.10;;;4.80;99.90;;;;;;7386199;19;20135;-59
2021/12/08 04:34:39;;;;;;;2.53;2.10;;;4.80;99.90;;;;;;7399463;19;20159;-60
2021/12/08 04:37:17;;;;;;;2.53;2.03;;;4.80;99.90;;;;;;7407030;19;20147;-59
2021/12/08 04:40:07;;;;;;;2.30;2.10;;;4.90;99.90;;;;;;7404070;19;20123;-60
2021/12/08 04:42:55;;;;;;;3.55;2.45;;;5.00;99.90;;;;;;7394128;19;20128;-59
2021/12/08 04:45:32;;;;;;;3.75;2.63;;;5.10;99.90;;;;;;7404049;19;20134;-59
2021/12/08 05:07:29;;;;;;;2.55;2.25;;;5.50;99.90;;;;;;7400594;19;20140;-61
2021/12/08 05:09:44;;;;;;;3.05;2.80;;;5.40;99.90;;;;;;7402128;19;20131;-61
2021/12/08 05:12:23;;;;;;;3.40;2.70;;;5.40;99.90;;;;;;7395763;19;20131;-61
2021/12/08 05:14:57;;;;;;;2.72;2.42;;;5.30;99.90;;;;;;7399115;19;20155;-61
2021/12/08 05:17:39;;;;;;;4.32;2.90;;;5.30;99.90;;;;;;7394592;19;20321;-61
2021/12/08 05:20:27;;;;;;;4.05;3.42;;;5.30;99.90;;;;;;7400864;19;20341;-61
2021/12/08 05:23:22;;;;;;;3.55;2.75;;;5.30;99.90;;;;;;7402388;19;20152;-61
2021/12/08 05:25:52;;;;;;;4.07;3.22;;;5.30;99.90;;;;;;7403554;19;20177;-61
2021/12/08 05:28:22;;;;;;;3.67;2.88;;;5.10;99.90;;;;;;7393252;19;20155;-61
2021/12/08 05:30:57;;;;;;;2.80;2.58;;;5.20;99.90;;;;;;7390221;19;20354;-61
2021/12/08 05:33:24;;;;;;;4.63;3.00;;;5.20;99.90;;;;;;7393844;19;20134;-61
2021/12/08 05:35:52;;;;;;;3.03;2.38;;;5.30;99.90;;;;;;7400948;19;20450;-61
2021/12/08 05:38:28;;;;;;;6.60;3.60;;;5.30;99.90;;;;;;7358836;19;20190;-62
2021/12/08 05:41:03;;;;;;;5.13;3.97;;;5.30;99.90;;;;;;7395018;19;20131;-61
2021/12/08 05:43:29;;;;;;;5.75;3.63;;;5.40;99.90;;;;;;7397231;19;20299;-61
2021/12/08 05:46:03;;;;;;;5.03;3.30;;;5.40;99.90;;;;;;7406659;19;20135;-61
2021/12/08 05:48:32;;;;;;;4.30;3.47;;;5.30;99.90;;;;;;7346701;19;20203;-61
2021/12/08 05:51:13;;;;;;;4.22;3.20;;;5.40;99.90;;;;;;7375183;19;20120;-59
2021/12/08 05:53:43;;;;;;;5.68;3.53;;;5.50;99.90;;;;;;7409396;19;20119;-59
2021/12/08 05:56:20;;;;;;;3.67;3.30;;;5.50;99.90;;;;;;7404427;19;20252;-60
2021/12/08 05:58:48;;;;;;;3.83;3.20;;;5.50;99.90;;;;;;7404744;19;20153;-59
2021/12/08 06:01:28;;;;;;;4.35;3.10;;;5.40;99.90;;;;;;7396475;19;20418;-60
2021/12/08 06:04:01;;;;;;;3.83;3.15;;;5.30;99.90;;;;;;7399633;19;20663;-60
2021/12/08 06:06:28;;;;;;;5.45;3.05;;;5.20;99.90;;;;;;7396380;19;20484;-59
2021/12/08 06:08:55;;;;;;;5.68;4.05;;;5.30;99.90;;;;;;7402617;19;20128;-59
2021/12/08 06:11:25;;;;;;;4.50;3.40;;;5.50;99.90;;;;;;7396013;19;21012;-59
2021/12/08 06:13:59;;;;;;;4.90;3.50;;;5.50;99.90;;;;;;7398886;19;20307;-59
2021/12/08 06:16:28;;;;;;;6.50;3.97;;;5.50;99.90;;;;;;7385608;19;20124;-60
2021/12/08 06:18:59;;;;;;;4.05;3.20;;;5.40;99.90;;;;;;7398522;19;20168;-59
2021/12/08 06:21:29;;;;;;;3.95;3.47;;;5.50;99.90;;;;;;7388377;19;20164;-59
2021/12/08 06:23:59;;;;;;;4.13;3.35;;;5.50;99.90;;;;;;7399370;19;20419;-60
2021/12/08 06:26:28;;;;;;;4.88;3.80;;;5.40;99.90;;;;;;7403686;19;20114;-60
2021/12/08 06:29:00;;;;;;;3.85;3.13;;;5.50;99.90;;;;;;7406884;19;20427;-61
2021/12/08 06:31:29;;;;;;;7.93;4.97;;;5.50;99.90;;;;;;7389779;19;20144;-61
2021/12/08 06:33:56;;;;;;;6.40;4.68;;;5.60;99.90;;;;;;7403208;19;20115;-61
2021/12/08 06:36:36;;;;;;;5.97;3.72;;;5.80;99.90;;;;;;7402664;19;20123;-60
2021/12/08 06:39:22;;;;;;;6.18;3.45;;;5.80;99.90;;;;;;7406184;19;20138;-60
2021/12/08 06:41:56;;;;;;;6.05;4.38;;;5.70;99.90;;;;;;7407311;19;20136;-61
2021/12/08 06:44:27;;;;;;;3.92;3.38;;;5.50;99.90;;;;;;7403005;19;20143;-61
2021/12/08 06:46:57;;;;;;;6.72;3.78;;;5.40;99.90;;;;;;7410775;19;20136;-60
2021/12/08 06:49:24;;;;;;;4.20;3.80;;;5.50;99.90;;;;;;7406855;19;20889;-61
2021/12/08 06:52:14;;;;;;;3.95;3.38;;;5.60;99.90;;;;;;7405235;19;20132;-60
2021/12/08 06:54:46;;;;;;;6.40;3.95;;;5.70;99.90;;;;;;7394390;19;20406;-61
2021/12/08 06:57:20;;;;;;;5.25;4.57;;;5.70;99.90;;;;;;7385120;19;20390;-60
2021/12/08 06:59:59;;;;;;;4.00;3.42;;;5.80;99.90;;;;;;7398925;19;20215;-60
2021/12/08 07:05:25;;;;;;;3.30;2.90;;;5.80;99.90;;;;;;7394040;19;20318;-60
2021/12/08 07:07:56;;;;;;;3.05;2.75;;;5.50;99.90;;;;;;7395553;19;20378;-61
2021/12/08 07:10:40;;;;;;;3.95;3.35;;;5.30;99.90;;;;;;7397628;19;20112;-60
2021/12/08 07:13:12;;;;;;;2.63;2.42;;;5.30;99.90;;;;;;7402660;19;20115;-60
2021/12/08 07:15:45;;;;;;;3.17;2.70;;;5.30;99.90;;;;;;7380828;19;20123;-60
2021/12/08 07:18:28;;;;;;;3.83;3.10;;;5.30;99.90;;;;;;7386259;19;20138;-60
2021/12/08 07:21:01;;;;;;;3.70;3.05;;;5.20;99.90;;;;;;7393104;19;20122;-61
2021/12/08 07:23:43;;;;;;;3.22;2.67;;;5.10;99.90;;;;;;7402955;19;20244;-60
2021/12/08 07:26:18;;;;;;;5.72;3.05;;;5.00;99.90;;;;;;7392711;19;20141;-61
2021/12/08 07:28:47;;;;;;;3.90;3.15;;;4.90;99.90;;;;;;7400998;19;20192;-60
2021/12/08 07:31:32;;;;;;;4.93;3.58;;;4.90;99.90;;;;;;7377833;19;20199;-60
2021/12/08 07:34:05;;;;;;;3.67;3.08;;;4.90;99.90;;;;;;7386280;19;20139;-60
2021/12/08 07:36:38;;;;;;;3.63;3.05;;;5.00;99.90;;;;;;7385849;19;20145;-60
2021/12/08 07:39:16;;;;;;;3.40;2.65;;;5.20;99.90;;;;;;7397447;19;20123;-59
2021/12/08 07:41:51;;;;;;;3.25;2.53;;;5.30;99.90;;;;;;7389356;19;20128;-60
2021/12/08 07:44:24;;;;;;;2.72;2.20;;;5.40;99.90;;;;;;7381780;19;20127;-60
2021/12/08 07:47:01;;;;;;;3.90;2.70;;;5.50;99.90;;;;;;7397553;19;20131;-61
2021/12/08 07:49:53;;;;;;;3.17;2.72;;;5.60;99.90;;;;;;7381204;19;20226;-60
2021/12/08 07:52:33;;;;;;;4.85;2.83;;;5.70;99.90;;;;;;7398271;19;20196;-59
2021/12/08 07:55:03;;;;;;;2.85;2.40;;;5.60;99.90;;;;;;7387321;19;20224;-59
2021/12/08 07:57:36;;;;;;;2.42;2.20;;;5.70;99.90;;;;;;7386017;19;20386;-59
2021/12/08 08:00:14;;;;;;;2.50;1.83;;;5.70;99.90;;;;;;7383854;19;20228;-61
2021/12/08 08:02:47;;;;;;;2.25;2.05;;;5.80;99.90;;;;;;7389322;19;20111;-61
2021/12/08 08:05:27;;;;;;;2.80;2.60;;;5.80;99.90;;;;;;7384555;19;20115;-62
2021/12/08 08:08:02;;;;;;;3.20;1.80;;;5.90;99.90;;;;;;7385365;19;20175;-61
2021/12/08 08:10:42;;;;;;;4.05;2.35;;;6.00;99.90;;;;;;7383325;19;20120;-61
2021/12/08 08:13:13;;;;;;;4.10;2.83;;;6.10;99.90;;;;;;7385813;19;20333;-61
2021/12/08 08:15:52;;;;;;;2.20;2.00;;;6.10;99.90;;;;;;7384228;19;20112;-61
2021/12/08 08:18:27;;;;;;;4.32;3.22;;;6.20;99.90;;;;;;7390848;19;20108;-61
2021/12/08 08:21:01;;;;;;;2.75;2.40;;;6.20;99.90;;;;;;7392114;19;20123;-62
2021/12/08 08:23:35;;;;;;;2.65;2.45;;;6.20;99.90;;;;;;7386183;19;20115;-61
2021/12/08 08:26:10;;;;;;;3.05;2.85;;;6.20;99.90;;;;;;7383089;19;20123;-61
2021/12/08 08:28:40;;;;;;;2.40;2.20;;;6.20;99.90;;;;;;7397521;19;20143;-61
2021/12/08 08:31:16;;;;;;;4.53;3.00;;;6.20;99.90;;;;;;7387822;19;20155;-61
2021/12/08 08:33:45;;;;;;;4.35;2.80;;;6.20;99.90;;;;;;7392883;19;20127;-61
2021/12/08 08:36:25;;;;;;;4.55;3.17;;;6.20;99.90;;;;;;7393217;19;20112;-61
2021/12/08 08:38:59;;;;;;;2.50;2.15;;;6.30;99.90;;;;;;7402011;19;20123;-61
2021/12/08 08:41:30;;;;;;;5.78;2.50;;;6.30;99.90;;;;;;7385954;19;20134;-62
2021/12/08 08:44:04;;;;;;;3.58;2.53;;;6.10;99.90;;;;;;7396843;19;20132;-61
2021/12/08 08:46:38;;;;;;;5.45;2.72;;;6.10;99.90;;;;;;7397857;19;20135;-61
2021/12/08 08:49:11;;;;;;;4.80;3.20;;;6.10;99.90;;;;;;7404440;19;20382;-61
2021/12/08 08:52:04;;;;;;;6.53;2.70;;;6.20;99.90;;;;;;7401485;19;20161;-62
2021/12/08 08:54:42;;;;;;;3.00;2.70;;;6.20;99.90;;;;;;7403272;19;20153;-61
2021/12/08 08:57:19;;;;;;;3.15;2.85;;;6.30;99.90;;;;;;7403044;19;20128;-61
2021/12/08 08:59:55;;;;;;;3.97;2.92;;;6.40;99.90;;;;;;7396675;19;20307;-61
2021/12/08 09:02:30;;;;;;;5.85;3.67;;;6.40;99.90;;;;;;7400159;19;20123;-61
2021/12/08 09:05:01;;;;;;;3.83;3.33;;;6.50;99.90;;;;;;7383286;19;20111;-61
2021/12/08 09:07:34;;;;;;;3.45;3.15;;;6.40;99.90;;;;;;7400996;19;20159;-61
2021/12/08 09:10:09;;;;;;;5.55;3.65;;;6.40;99.90;;;;;;7394199;19;20124;-58
2021/12/08 09:12:48;;;;;;;4.60;3.45;;;6.40;99.90;;;;;;7400922;19;20119;-58
2021/12/08 09:15:25;;;;;;;5.32;3.50;;;6.40;99.90;;;;;;7401990;19;20123;-58
2021/12/08 09:17:56;;;;;;;3.75;3.45;;;6.40;99.90;;;;;;7402355;19;20135;-58
2021/12/08 09:21:18;;;;;;;5.65;4.15;;;6.50;99.90;;;;;;7407748;19;20239;-58
2021/12/08 09:24:08;;;;;;;3.97;3.25;;;6.40;99.90;;;;;;7408843;19;20124;-59
2021/12/08 09:26:44;;;;;;;3.72;3.35;;;6.40;99.90;;;;;;7407686;19;20115;-58
2021/12/08 09:29:18;;;;;;;4.82;3.10;;;6.40;99.90;;;;;;7406559;19;20126;-58
2021/12/08 09:32:08;;;;;;;4.10;3.05;;;6.50;99.90;;;;;;7387539;19;20151;-58
2021/12/08 09:34:54;;;;;;;6.78;4.60;;;6.40;99.90;;;;;;7410317;19;20139;-58
2021/12/08 09:37:27;;;;;;;6.15;3.30;;;6.50;99.90;;;;;;7410755;19;20128;-58
2021/12/08 09:40:13;;;;;;;7.38;4.10;;;6.50;99.90;;;;;;7412085;19;20124;-61
2021/12/08 09:42:46;;;;;;;5.53;3.17;;;6.60;99.90;;;;;;7409634;19;20124;-61
2021/12/08 09:45:25;;;;;;;4.57;3.58;;;6.70;99.90;;;;;;7397421;19;20234;-62
2021/12/08 09:47:55;;;;;;;4.90;3.40;;;6.80;99.90;;;;;;7398788;19;20116;-61
2021/12/08 09:50:28;;;;;;;5.05;3.35;;;6.80;99.90;;;;;;7408726;19;20271;-62
2021/12/08 09:53:00;;;;;;;4.65;3.55;;;6.80;99.90;;;;;;7408609;19;20120;-62
2021/12/08 09:55:32;;;;;;;8.15;3.50;;;6.70;99.90;;;;;;7408809;19;20112;-62
2021/12/08 09:58:06;;;;;;;5.97;3.30;;;6.70;99.90;;;;;;7408500;19;20147;-61
2021/12/08 10:00:38;;;;;;;4.20;3.40;;;6.80;99.90;;;;;;7411176;19;20327;-62
2021/12/08 10:03:08;;;;;;;8.25;4.35;;;6.80;99.90;;;;;;7408593;19;20124;-62
2021/12/08 10:05:36;;;;;;;4.78;4.03;;;6.80;99.90;;;;;;7407472;19;20128;-61
2021/12/08 10:08:06;;;;;;;4.80;3.83;;;6.80;99.90;;;;;;7404598;19;20130;-61
2021/12/08 10:10:34;;;;;;;5.30;3.75;;;6.80;99.90;;;;;;7409613;19;20136;-58
2021/12/08 10:13:00;;;;;;;6.22;4.80;;;6.90;99.90;;;;;;7400267;19;20170;-58
2021/12/08 10:15:29;;;;;;;5.40;3.72;;;6.90;99.90;;;;;;7404665;19;20240;-58
2021/12/08 10:17:57;;;;;;;6.90;4.70;;;6.80;99.90;;;;;;7402211;19;20143;-58
2021/12/08 10:20:54;;;;;;;9.52;5.07;;;6.90;99.90;;;;;;7405063;19;20128;-58
2021/12/08 10:23:28;;;;;;;6.93;4.47;;;6.90;99.90;;;;;;7388219;19;20737;-58
2021/12/08 10:26:00;;;;;;;3.95;3.55;;;6.80;99.90;;;;;;7393851;19;20557;-58
2021/12/08 10:28:36;;;;;;;4.47;3.92;;;6.70;99.90;;;;;;7377911;19;20116;-59
2021/12/08 10:31:12;;;;;;;4.60;3.50;;;6.70;99.90;;;;;;7380610;19;20151;-59
2021/12/08 10:34:22;;;;;;;4.25;3.55;;;6.70;99.90;;;;;;7402911;19;20554;-58
2021/12/08 10:37:09;;;;;;;4.70;3.40;;;6.70;99.90;;;;;;7395506;19;20124;-58
2021/12/08 10:39:42;;;;;;;3.75;2.92;;;6.90;99.90;;;;;;7393942;19;20265;-58
2021/12/08 10:42:33;;;;;;;3.30;2.75;;;6.80;99.90;;;;;;7386632;19;20116;-58
2021/12/08 10:45:11;;;;;;;3.08;2.80;;;6.90;99.90;;;;;;7392280;19;20922;-59
2021/12/08 10:47:45;;;;;;;3.65;3.00;;;7.00;99.90;;;;;;7398702;19;20362;-59
2021/12/08 10:56:04;;;;;;;3.60;2.53;;;7.20;99.90;;;;;;7399043;19;20227;-58
2021/12/08 10:58:39;;;;;;;3.15;2.90;;;7.00;99.90;;;;;;7399522;19;20636;-58
2021/12/08 11:01:19;;;;;;;2.85;2.60;;;7.00;99.90;;;;;;7400206;19;20119;-59
2021/12/08 11:03:57;;;;;;;2.28;1.75;;;6.90;99.90;;;;;;7394799;19;20521;-59
2021/12/08 11:06:32;;;;;;;2.13;1.80;;;6.70;99.90;;;;;;7384087;19;20111;-58
2021/12/08 11:09:02;;;;;;;3.55;2.20;;;6.80;99.90;;;;;;7394015;19;20112;-59
2021/12/08 11:11:32;;;;;;;2.40;2.03;;;6.90;99.90;;;;;;7399906;19;20123;-59
2021/12/08 11:14:08;;;;;;;2.35;1.85;;;7.00;99.90;;;;;;7394179;19;20183;-59
2021/12/08 11:16:45;;;;;;;2.50;2.30;;;7.10;99.90;;;;;;7390684;19;20131;-58
2021/12/08 11:19:24;;;;;;;3.20;2.50;;;7.30;99.90;;;;;;7397365;19;20159;-58
2021/12/08 11:21:57;;;;;;;2.40;2.17;;;7.20;99.90;;;;;;7381300;19;20136;-58
2021/12/08 11:24:48;;;;;;;5.55;2.35;;;7.20;99.90;;;;;;7390712;19;20116;-58
2021/12/08 11:27:30;;;;;;;3.30;3.00;;;7.30;99.90;;;;;;7392865;19;20115;-58
2021/12/08 11:30:11;;;;;;;2.65;2.20;;;7.40;99.90;;;;;;7383220;19;20116;-58
2021/12/08 11:32:38;;;;;;;3.42;2.53;;;7.30;99.90;;;;;;7395967;19;20339;-58
2021/12/08 11:35:07;;;;;;;3.42;2.45;;;7.30;99.90;;;;;;7385070;19;20160;-58
2021/12/08 11:37:36;;;;;;;5.05;2.63;;;7.40;99.90;;;;;;7404434;19;20188;-58
2021/12/08 11:40:15;;;;;;;4.10;2.92;;;7.50;99.90;;;;;;7394749;19;20291;-61
2021/12/08 11:42:49;;;;;;;2.83;2.50;;;7.50;99.90;;;;;;7406458;19;20224;-61
2021/12/08 11:45:25;;;;;;;3.78;2.35;;;7.40;99.90;;;;;;7395729;19;20116;-61
2021/12/08 11:47:56;;;;;;;9.65;5.20;;;7.40;99.90;;;;;;7404726;19;20128;-61
2021/12/08 11:50:25;;;;;;;15.98;8.27;;;7.40;99.90;;;;;;7405437;19;20253;-61
2021/12/08 11:52:53;;;;;;;7.07;4.20;;;7.50;99.90;;;;;;7401520;19;20133;-58
2021/12/08 11:55:25;;;;;;;7.80;4.05;;;7.50;99.90;;;;;;7405401;19;20132;-58
2021/12/08 11:57:59;;;;;;;6.30;2.75;;;7.50;99.90;;;;;;7407691;19;20333;-58
2021/12/08 12:00:34;;;;;;;5.43;2.70;;;7.50;99.90;;;;;;7405913;19;20124;-58
2021/12/08 12:03:11;;;;;;;3.30;2.80;;;7.60;99.90;;;;;;7403152;19;20119;-58
2021/12/08 12:05:49;;;;;;;4.28;2.88;;;7.60;99.90;;;;;;7394127;19;20155;-60
2021/12/08 12:08:22;;;;;;;4.95;2.47;;;7.70;99.90;;;;;;7395237;19;20135;-58
2021/12/08 12:10:54;;;;;;;2.95;2.58;;;7.60;99.90;;;;;;7389836;19;20120;-58
2021/12/08 12:13:25;;;;;;;2.55;2.13;;;7.60;99.90;;;;;;7404520;19;20134;-58
2021/12/08 12:15:52;;;;;;;3.17;2.65;;;7.50;99.90;;;;;;7396758;19;20128;-58
2021/12/08 12:18:30;;;;;;;4.07;3.22;;;7.60;99.90;;;;;;7402244;19;20127;-58
2021/12/08 12:21:09;;;;;;;5.18;2.92;;;7.50;99.90;;;;;;7392897;19;20130;-58
2021/12/08 12:23:56;;;;;;;4.78;2.65;;;7.60;99.90;;;;;;7391512;19;20161;-58
2021/12/08 12:26:53;;;;;;;2.83;2.50;;;7.60;99.90;;;;;;7397619;19;20136;-58
2021/12/08 12:29:28;;;;;;;3.22;2.85;;;7.60;99.90;;;;;;7401285;19;20116;-58
2021/12/08 12:32:07;;;;;;;2.20;2.00;;;7.60;99.90;;;;;;7392190;19;20131;-58
2021/12/08 12:34:36;;;;;;;2.60;2.40;;;7.60;99.90;;;;;;7397957;19;20358;-58
2021/12/08 12:37:05;;;;;;;4.13;2.75;;;7.60;99.90;;;;;;7387937;19;20120;-58
2021/12/08 12:39:45;;;;;;;3.13;2.72;;;7.70;99.90;;;;;;7404904;19;20119;-58
2021/12/08 12:42:16;;;;;;;2.50;2.30;;;7.60;99.90;;;;;;7408939;19;20119;-58
2021/12/08 12:45:07;;;;;;;4.07;3.40;;;7.60;99.90;;;;;;7400514;19;20119;-58
2021/12/08 12:47:37;;;;;;;7.70;3.20;;;7.70;99.90;;;;;;7398814;19;20112;-58
2021/12/08 12:50:23;;;;;;;5.10;3.15;;;7.70;99.90;;;;;;7394090;19;20151;-58
2021/12/08 12:52:55;;;;;;;3.38;3.08;;;7.80;99.90;;;;;;7402497;19;20128;-58
2021/12/08 12:55:44;;;;;;;9.57;4.00;;;7.70;99.90;;;;;;7396291;19;20135;-59
2021/12/08 12:58:16;;;;;;;3.15;2.85;;;7.60;99.90;;;;;;7399990;19;20212;-58
2021/12/08 13:00:48;;;;;;;4.63;3.05;;;7.60;99.90;;;;;;7400726;19;20132;-58
2021/12/08 13:03:40;;;;;;;5.50;2.95;;;7.60;99.90;;;;;;7397954;19;20246;-58
2021/12/08 13:06:16;;;;;;;3.40;3.10;;;7.50;99.90;;;;;;7395251;19;20123;-58
2021/12/08 13:08:49;;;;;;;4.43;3.28;;;7.50;99.90;;;;;;7396791;19;20199;-58
2021/12/08 13:11:33;;;;;;;4.40;3.53;;;7.50;99.90;;;;;;7384108;19;20124;-58
2021/12/08 13:14:01;;;;;;;4.07;3.40;;;7.60;99.90;;;;;;7398407;19;20124;-58
2021/12/08 13:16:38;;;;;;;3.72;3.42;;;7.50;99.90;;;;;;7367791;19;20148;-58
2021/12/08 13:19:07;;;;;;;3.90;3.47;;;7.50;99.90;;;;;;7391950;19;20342;-58
2021/12/08 13:21:40;;;;;;;7.90;3.70;;;7.50;99.90;;;;;;7400731;19;20224;-58
2021/12/08 13:24:41;;;;;;;4.43;3.80;;;7.50;99.90;;;;;;7396122;19;20191;-59
2021/12/08 13:27:09;;;;;;;3.95;3.20;;;7.30;99.90;;;;;;7398461;19;20123;-59
2021/12/08 13:29:46;;;;;;;4.57;3.97;;;7.20;99.90;;;;;;7399954;19;20132;-58
2021/12/08 13:32:15;;;;;;;4.60;4.00;;;7.20;99.90;;;;;;7392121;19;20187;-58
2021/12/08 13:35:04;;;;;;;4.20;3.80;;;7.10;99.90;;;;;;7399317;19;20409;-58
2021/12/08 13:37:39;;;;;;;5.93;3.75;;;7.20;99.90;;;;;;7403504;19;20668;-58
2021/12/08 13:40:12;;;;;;;3.85;3.40;;;7.10;99.90;;;;;;7397368;19;20112;-59
2021/12/08 13:42:54;;;;;;;5.15;4.07;;;6.80;99.90;;;;;;7406903;19;20366;-58
2021/12/08 13:45:43;;;;;;;4.90;4.25;;;6.80;99.90;;;;;;7400947;19;20120;-59
2021/12/08 13:48:12;;;;;;;4.50;3.85;;;6.60;99.90;;;;;;7400644;19;20143;-58
2021/12/08 13:50:41;;;;;;;5.07;3.85;;;6.50;99.90;;;;;;7398287;19;20214;-58
2021/12/08 13:53:15;;;;;;;6.43;4.82;;;6.50;99.90;;;;;;7402161;19;20143;-58
2021/12/08 13:55:44;;;;;;;5.55;4.53;;;6.60;99.90;;;;;;7400167;19;20225;-58
2021/12/08 13:58:15;;;;;;;4.97;4.32;;;6.70;99.90;;;;;;7402864;19;20135;-59
2021/12/08 14:00:59;;;;;;;5.75;4.65;;;6.60;99.90;;;;;;7402362;19;20270;-59
2021/12/08 14:03:49;;;;;;;5.57;4.72;;;6.50;99.90;;;;;;7393955;19;20127;-58
2021/12/08 14:06:19;;;;;;;4.63;4.13;;;6.40;99.90;;;;;;7403009;19;20120;-58
2021/12/08 14:08:50;;;;;;;5.80;5.05;;;6.30;99.90;;;;;;7394764;19;20135;-58
2021/12/08 14:11:27;;;;;;;6.55;5.18;;;6.20;99.90;;;;;;7408977;19;20315;-61
2021/12/08 14:14:00;;;;;;;5.03;4.43;;;6.30;99.90;;;;;;7392050;19;20276;-61
2021/12/08 14:16:34;;;;;;;6.85;5.22;;;6.20;99.90;;;;;;7402046;19;20371;-61
2021/12/08 14:19:05;;;;;;;7.50;5.50;;;6.20;99.90;;;;;;7400072;19;20142;-61